createdAt,value
2018-11-06T00:01:08.970Z,5.8
2018-11-06T00:04:08.774Z,5.7
2018-11-06T00:07:08.885Z,5.8
2018-11-06T00:10:09.101Z,5.9
2018-11-06T00:13:09.078Z,5.8
2018-11-06T00:16:08.965Z,5.7
2018-11-06T00:19:08.969Z,5.7
2018-11-06T00:22:08.800Z,5.8
2018-11-06T00:25:08.942Z,5.9
2018-11-06T00:28:09.271Z,6
2018-11-06T00:31:08.781Z,6
2018-11-06T00:34:10.669Z,6
2018-11-06T00:37:08.928Z,6
2018-11-06T00:40:08.819Z,5.8
2018-11-06T00:43:08.825Z,5.9
2018-11-06T00:46:08.945Z,5.9
2018-11-06T00:49:08.950Z,5.8
2018-11-06T00:52:08.949Z,5.8
2018-11-06T00:55:08.971Z,6
2018-11-06T00:58:08.864Z,6
2018-11-06T01:01:08.798Z,5.9
2018-11-06T01:04:08.890Z,5.8
2018-11-06T01:07:08.767Z,5.8
2018-11-06T01:10:08.842Z,5.8
2018-11-06T01:13:09.195Z,5.8
2018-11-06T01:16:09.205Z,5.8
2018-11-06T01:19:08.820Z,5.8
2018-11-06T01:22:09.010Z,5.8
2018-11-06T01:25:09.047Z,5.9
2018-11-06T01:28:08.799Z,5.9
2018-11-06T01:31:09.126Z,5.9
2018-11-06T01:34:08.968Z,5.6
2018-11-06T01:37:08.753Z,5.6
2018-11-06T01:40:08.825Z,5.6
2018-11-06T01:43:08.907Z,5.7
2018-11-06T01:46:08.884Z,5.5
2018-11-06T01:49:08.890Z,5.7
2018-11-06T01:52:08.983Z,5.8
2018-11-06T01:55:08.748Z,5.6
2018-11-06T01:58:08.822Z,5.6
2018-11-06T02:01:08.897Z,5.7
2018-11-06T02:04:08.987Z,5.5
2018-11-06T02:07:08.886Z,5.5
2018-11-06T02:10:09.005Z,5.7
2018-11-06T02:13:08.852Z,5.5
2018-11-06T02:16:09.006Z,5.5
2018-11-06T02:19:08.876Z,5.5
2018-11-06T02:22:08.851Z,5.5
2018-11-06T02:25:08.849Z,5.4
2018-11-06T02:28:08.890Z,5.3
2018-11-06T02:31:08.925Z,5.3
2018-11-06T02:34:08.883Z,5.3
2018-11-06T02:37:08.848Z,5.4
2018-11-06T02:40:08.886Z,5.2
2018-11-06T02:43:09.267Z,5.2
2018-11-06T02:46:09.121Z,5.1
2018-11-06T02:49:08.666Z,5.2
2018-11-06T02:52:08.935Z,5.2
2018-11-06T02:55:08.806Z,5.2
2018-11-06T02:58:09.024Z,5.3
2018-11-06T03:01:08.723Z,5.3
2018-11-06T03:04:08.860Z,5.2
2018-11-06T03:07:08.903Z,5.1
2018-11-06T03:10:09.774Z,5.1
2018-11-06T03:13:08.812Z,5.1
2018-11-06T03:16:08.895Z,5.2
2018-11-06T03:19:08.693Z,5
2018-11-06T03:22:08.788Z,5.1
2018-11-06T03:25:08.803Z,5.2
2018-11-06T03:28:08.915Z,5.1
2018-11-06T03:31:08.829Z,5
2018-11-06T03:34:09.050Z,5
2018-11-06T03:37:09.023Z,5.1
2018-11-06T03:40:08.813Z,5
2018-11-06T03:43:08.911Z,5.1
2018-11-06T03:46:08.867Z,5
2018-11-06T03:49:08.630Z,5.1
2018-11-06T03:52:08.782Z,5
2018-11-06T03:55:08.822Z,5
2018-11-06T03:58:09.021Z,4.9
2018-11-06T04:01:08.771Z,5
2018-11-06T04:04:08.938Z,4.9
2018-11-06T04:07:09.222Z,5
2018-11-06T04:10:09.056Z,5
2018-11-06T04:13:08.897Z,5
2018-11-06T04:16:08.902Z,5
2018-11-06T04:19:09.211Z,4.9
2018-11-06T04:22:08.803Z,4.9
2018-11-06T04:25:08.900Z,5.1
2018-11-06T04:28:09.058Z,5.1
2018-11-06T04:31:08.731Z,5
2018-11-06T04:34:08.764Z,5.1
2018-11-06T04:37:08.902Z,5
2018-11-06T04:40:08.790Z,5
2018-11-06T04:43:08.853Z,5
2018-11-06T04:46:09.518Z,5
2018-11-06T04:49:08.853Z,5
2018-11-06T04:52:08.766Z,5
2018-11-06T04:55:08.959Z,4.9
2018-11-06T04:58:08.837Z,5
2018-11-06T05:01:08.837Z,5
2018-11-06T05:04:08.836Z,5
2018-11-06T05:07:08.862Z,5.2
2018-11-06T05:10:08.876Z,5.2
2018-11-06T05:13:08.874Z,5.1
2018-11-06T05:16:09.002Z,5.1
2018-11-06T05:19:08.883Z,5.2
2018-11-06T05:22:08.899Z,5.3
2018-11-06T05:25:09.117Z,5.1
2018-11-06T05:28:09.148Z,5.1
2018-11-06T05:31:09.107Z,5
2018-11-06T05:34:08.936Z,4.9
2018-11-06T05:37:08.944Z,4.9
2018-11-06T05:40:09.108Z,5
2018-11-06T05:43:09.069Z,4.9
2018-11-06T05:46:08.728Z,4.9
2018-11-06T05:49:09.098Z,4.9
2018-11-06T05:52:08.989Z,4.9
2018-11-06T05:55:08.815Z,4.7
2018-11-06T05:58:09.002Z,4.8
2018-11-06T06:01:08.925Z,4.8
2018-11-06T06:04:09.279Z,4.9
2018-11-06T06:07:08.741Z,4.8
2018-11-06T06:10:08.691Z,4.7
2018-11-06T06:13:08.845Z,4.7
2018-11-06T06:16:08.578Z,4.8
2018-11-06T06:19:09.058Z,4.7
2018-11-06T06:22:08.843Z,4.8
2018-11-06T06:25:08.885Z,4.7
2018-11-06T06:28:08.735Z,4.7
2018-11-06T06:31:08.794Z,4.6
2018-11-06T06:34:08.772Z,4.6
2018-11-06T06:37:08.620Z,4.6
2018-11-06T06:40:10.615Z,4.7
2018-11-06T06:43:08.755Z,4.6
2018-11-06T06:46:09.426Z,4.5
2018-11-06T06:49:08.808Z,4.6
2018-11-06T06:52:08.987Z,4.6
2018-11-06T06:55:11.168Z,4.7
2018-11-06T06:58:08.616Z,4.8
2018-11-06T07:01:08.920Z,5.1
2018-11-06T07:04:08.727Z,4.9
2018-11-06T07:07:09.199Z,5.1
2018-11-06T07:10:08.747Z,5
2018-11-06T07:13:10.435Z,4.8
2018-11-06T07:16:09.022Z,4.9
2018-11-06T07:19:08.756Z,4.7
2018-11-06T07:22:08.850Z,4.8
2018-11-06T07:25:08.821Z,4.9
2018-11-06T07:28:09.153Z,4.9
2018-11-06T07:31:08.605Z,4.9
2018-11-06T07:34:08.729Z,4.9
2018-11-06T07:37:08.881Z,4.8
2018-11-06T07:40:08.662Z,4.7
2018-11-06T07:43:09.078Z,4.8
2018-11-06T07:46:09.559Z,4.7
2018-11-06T07:49:08.824Z,4.6
2018-11-06T07:52:08.843Z,4.7
2018-11-06T07:55:08.742Z,4.8
2018-11-06T07:58:08.747Z,4.6
2018-11-06T08:01:08.748Z,4.6
2018-11-06T08:04:09.344Z,4.7
2018-11-06T08:07:08.726Z,4.6
2018-11-06T08:10:08.776Z,4.7
2018-11-06T08:13:08.519Z,4.8
2018-11-06T08:16:08.552Z,4.8
2018-11-06T08:19:08.714Z,4.8
2018-11-06T08:22:08.518Z,4.8
2018-11-06T08:25:08.932Z,5
2018-11-06T08:28:08.989Z,4.9
2018-11-06T08:31:12.994Z,4.9
2018-11-06T08:34:08.556Z,4.9
2018-11-06T08:37:11.357Z,4.8
2018-11-06T08:40:08.764Z,5.1
2018-11-06T08:43:08.576Z,4.9
2018-11-06T08:46:09.092Z,4.9
2018-11-06T08:49:08.912Z,4.8
2018-11-06T08:52:08.819Z,4.9
2018-11-06T08:55:08.851Z,4.8
2018-11-06T08:58:08.878Z,4.9
2018-11-06T09:01:08.811Z,4.9
2018-11-06T09:04:08.756Z,4.9
2018-11-06T09:07:08.630Z,5
2018-11-06T09:10:09.215Z,5
2018-11-06T09:13:08.836Z,5.1
2018-11-06T09:16:08.595Z,5
2018-11-06T09:19:08.654Z,5.3
2018-11-06T09:22:09.245Z,5.1
2018-11-06T09:25:09.004Z,5.1
2018-11-06T09:28:09.135Z,5
2018-11-06T09:31:10.670Z,5.1
2018-11-06T09:34:08.849Z,5.2
2018-11-06T09:37:08.790Z,5.1
2018-11-06T09:40:08.673Z,5.1
2018-11-06T09:43:08.771Z,5.1
2018-11-06T09:46:08.603Z,5
2018-11-06T09:49:08.711Z,5.1
2018-11-06T09:52:10.996Z,5.3
2018-11-06T09:55:09.022Z,5.3
2018-11-06T09:58:08.556Z,5.4
2018-11-06T10:01:09.524Z,5.3
2018-11-06T10:04:08.848Z,5.2
2018-11-06T10:07:15.137Z,5.4
2018-11-06T10:10:08.988Z,5.2
2018-11-06T10:13:08.690Z,5.3
2018-11-06T10:16:09.039Z,7.6
2018-11-06T10:19:08.559Z,8.4
2018-11-06T10:22:08.854Z,9.4
2018-11-06T10:25:09.025Z,11.5
2018-11-06T10:28:09.090Z,11.6
2018-11-06T10:31:08.898Z,12.3
2018-11-06T10:34:08.679Z,12.8
2018-11-06T10:37:08.498Z,12.9
2018-11-06T10:40:08.683Z,13.7
2018-11-06T10:43:08.615Z,14.3
2018-11-06T10:46:08.983Z,15
2018-11-06T10:49:08.748Z,17.2
2018-11-06T10:52:08.594Z,16.8
2018-11-06T10:55:08.794Z,14.8
2018-11-06T10:58:10.767Z,14.3
2018-11-06T11:01:09.004Z,13.7
2018-11-06T11:04:10.144Z,13
2018-11-06T11:07:08.951Z,12.1
2018-11-06T11:10:08.520Z,11.9
2018-11-06T11:13:08.579Z,11.7
2018-11-06T11:16:08.724Z,12.4
2018-11-06T11:19:08.475Z,12
2018-11-06T11:22:08.553Z,11.7
2018-11-06T11:25:08.773Z,11.6
2018-11-06T11:28:08.765Z,11.1
2018-11-06T11:31:08.523Z,11.6
2018-11-06T11:34:08.967Z,11.5
2018-11-06T11:37:08.957Z,11.3
2018-11-06T11:40:08.560Z,11.4
2018-11-06T11:43:08.809Z,11.3
2018-11-06T11:46:08.892Z,11.3
2018-11-06T11:49:08.762Z,11.5
2018-11-06T11:52:08.487Z,11.1
2018-11-06T11:55:08.572Z,11.1
2018-11-06T11:58:08.930Z,11.4
2018-11-06T12:01:08.828Z,11.2
2018-11-06T12:04:08.468Z,11
2018-11-06T12:07:08.717Z,11.1
2018-11-06T12:10:08.905Z,10.9
2018-11-06T12:13:08.542Z,11.1
2018-11-06T12:16:08.804Z,10.9
2018-11-06T12:19:08.968Z,11.1
2018-11-06T12:22:08.558Z,11.1
2018-11-06T12:25:13.005Z,11
2018-11-06T12:28:08.819Z,10.7
2018-11-06T12:31:08.519Z,10.8
2018-11-06T12:34:08.733Z,10.7
2018-11-06T12:37:10.473Z,10.8
2018-11-06T12:40:08.668Z,10.8
2018-11-06T12:43:11.320Z,10.6
2018-11-06T12:46:08.766Z,10.7
2018-11-06T12:49:08.465Z,12.4
2018-11-06T12:52:08.521Z,11.4
2018-11-06T12:55:08.626Z,10.9
2018-11-06T12:58:08.576Z,10.6
2018-11-06T13:01:08.608Z,10.7
2018-11-06T13:04:08.983Z,10.7
2018-11-06T13:07:08.950Z,10.2
2018-11-06T13:10:09.029Z,10
2018-11-06T13:13:08.944Z,10
2018-11-06T13:16:10.221Z,10.5
2018-11-06T13:19:08.530Z,10.2
2018-11-06T13:22:08.481Z,10.4
2018-11-06T13:25:08.615Z,10.2
2018-11-06T13:28:08.844Z,10.2
2018-11-06T13:31:08.456Z,10.3
2018-11-06T13:34:08.831Z,10
2018-11-06T13:37:08.810Z,9.8
2018-11-06T13:40:08.913Z,9.8
2018-11-06T13:43:10.343Z,9.7
2018-11-06T13:46:08.861Z,9.9
2018-11-06T13:49:08.999Z,10.2
2018-11-06T13:52:09.797Z,10.1
2018-11-06T13:55:08.995Z,9.9
2018-11-06T13:58:08.565Z,10
2018-11-06T14:01:08.894Z,10
2018-11-06T14:04:09.440Z,10
2018-11-06T14:07:08.817Z,9.9
2018-11-06T14:10:09.005Z,10.1
2018-11-06T14:13:08.971Z,10
2018-11-06T14:16:08.519Z,9.9
2018-11-06T14:19:08.496Z,10
2018-11-06T14:22:08.566Z,10.1
2018-11-06T14:25:08.656Z,10
2018-11-06T14:28:08.735Z,10.1
2018-11-06T14:31:08.794Z,9.9
2018-11-06T14:34:08.796Z,10
2018-11-06T14:37:08.395Z,10.2
2018-11-06T14:40:08.975Z,10.3
2018-11-06T14:43:08.619Z,10.5
2018-11-06T14:46:08.397Z,10.4
2018-11-06T14:49:08.985Z,10.4
2018-11-06T14:52:08.656Z,10.3
2018-11-06T14:55:08.620Z,10.6
2018-11-06T14:58:08.752Z,10.4
2018-11-06T15:01:08.584Z,10.9
2018-11-06T15:04:08.682Z,11
2018-11-06T15:07:08.688Z,10.8
2018-11-06T15:10:08.470Z,10.9
2018-11-06T15:13:08.592Z,11
2018-11-06T15:16:08.602Z,11.1
2018-11-06T15:19:08.632Z,11
2018-11-06T15:22:08.408Z,10.7
2018-11-06T15:25:08.458Z,10.8
2018-11-06T15:28:08.630Z,11
2018-11-06T15:31:08.499Z,11.1
2018-11-06T15:34:08.441Z,11
2018-11-06T15:37:08.520Z,10.9
2018-11-06T15:40:09.014Z,10.7
2018-11-06T15:43:08.579Z,11.3
2018-11-06T15:46:08.744Z,11.5
2018-11-06T15:49:10.568Z,11.8
2018-11-06T15:52:09.531Z,12.9
2018-11-06T15:55:08.544Z,12.8
2018-11-06T15:58:08.940Z,13
2018-11-06T16:01:09.899Z,12.8
2018-11-06T16:04:09.023Z,12.3
2018-11-06T16:07:09.080Z,12.3
2018-11-06T16:10:08.468Z,11.9
2018-11-06T16:13:08.526Z,12
2018-11-06T16:16:08.947Z,12.1
2018-11-06T16:19:08.451Z,12
2018-11-06T16:22:08.432Z,12.3
2018-11-06T16:25:08.466Z,12.3
2018-11-06T16:28:09.101Z,12.1
2018-11-06T16:31:08.325Z,12.4
2018-11-06T16:34:08.683Z,12.3
2018-11-06T16:37:08.675Z,12.1
2018-11-06T16:40:08.664Z,11.8
2018-11-06T16:43:08.429Z,11.3
2018-11-06T16:46:08.545Z,11.3
2018-11-06T16:49:08.848Z,11.3
2018-11-06T16:52:08.800Z,11.1
2018-11-06T16:55:08.404Z,11.2
2018-11-06T16:58:08.814Z,11.5
2018-11-06T17:01:12.571Z,11.2
2018-11-06T17:04:09.285Z,11.2
2018-11-06T17:07:08.898Z,11.3
2018-11-06T17:10:08.884Z,11.4
2018-11-06T17:13:08.849Z,11.3
2018-11-06T17:16:08.657Z,11.1
2018-11-06T17:19:08.554Z,11
2018-11-06T17:22:08.526Z,11.1
2018-11-06T17:25:08.423Z,11
2018-11-06T17:28:08.536Z,11.1
2018-11-06T17:31:08.953Z,11.2
2018-11-06T17:34:08.580Z,10.9
2018-11-06T17:37:08.415Z,10.7
2018-11-06T17:40:08.692Z,10.8
2018-11-06T17:43:08.713Z,10.9
2018-11-06T17:46:08.680Z,10.7
2018-11-06T17:49:08.452Z,10.6
2018-11-06T17:52:08.495Z,11
2018-11-06T17:55:10.365Z,10.8
2018-11-06T17:58:08.394Z,10.7
2018-11-06T18:01:08.438Z,10.7
2018-11-06T18:04:10.738Z,10.4
2018-11-06T18:07:08.575Z,10.6
2018-11-06T18:10:08.430Z,10.3
2018-11-06T18:13:08.577Z,10.2
2018-11-06T18:16:08.762Z,10.1
2018-11-06T18:19:08.363Z,10.1
2018-11-06T18:22:08.422Z,9.9
2018-11-06T18:25:10.226Z,10
2018-11-06T18:28:08.530Z,10
2018-11-06T18:31:08.484Z,10.3
2018-11-06T18:34:08.475Z,10.2
2018-11-06T18:37:09.047Z,10.1
2018-11-06T18:40:08.465Z,10.1
2018-11-06T18:43:08.598Z,10.2
2018-11-06T18:46:08.628Z,10.1
2018-11-06T18:49:08.343Z,9.9
2018-11-06T18:52:08.533Z,9.9
2018-11-06T18:55:08.532Z,10.1
2018-11-06T18:58:11.068Z,11
2018-11-06T19:01:08.319Z,10.6
2018-11-06T19:04:08.463Z,10.4
2018-11-06T19:07:08.417Z,10.4
2018-11-06T19:10:08.774Z,10.5
2018-11-06T19:13:08.807Z,10.4
2018-11-06T19:16:08.557Z,10.5
2018-11-06T19:19:08.589Z,10.2
2018-11-06T19:22:08.315Z,10.3
2018-11-06T19:25:08.373Z,10.2
2018-11-06T19:28:08.503Z,10.1
2018-11-06T19:31:08.318Z,10
2018-11-06T19:34:08.422Z,9.9
2018-11-06T19:37:08.492Z,10.3
2018-11-06T19:40:08.562Z,10
2018-11-06T19:43:08.744Z,9.8
2018-11-06T19:46:08.575Z,10.7
2018-11-06T19:49:08.422Z,10.3
2018-11-06T19:52:08.299Z,9.9
2018-11-06T19:55:08.395Z,9.8
2018-11-06T19:58:08.567Z,9.8
2018-11-06T20:01:10.235Z,10
2018-11-06T20:04:08.524Z,9.8
2018-11-06T20:07:08.622Z,9.8
2018-11-06T20:10:08.369Z,13
2018-11-06T20:13:08.522Z,12.9
2018-11-06T20:16:08.236Z,11.9
2018-11-06T20:19:08.421Z,12.5
2018-11-06T20:22:08.783Z,12.5
2018-11-06T20:25:08.451Z,11.8
2018-11-06T20:28:08.479Z,11.5
2018-11-06T20:31:08.371Z,11.6
2018-11-06T20:34:08.735Z,11
2018-11-06T20:37:08.387Z,10.6
2018-11-06T20:40:08.563Z,10.7
2018-11-06T20:43:09.745Z,10.6
2018-11-06T20:46:09.492Z,10.2
2018-11-06T20:49:08.740Z,10
2018-11-06T20:52:08.536Z,10.4
2018-11-06T20:55:08.250Z,10.2
2018-11-06T20:58:08.413Z,10.5
2018-11-06T21:01:09.765Z,10.2
2018-11-06T21:04:08.352Z,10
2018-11-06T21:07:08.519Z,10.6
2018-11-06T21:10:08.328Z,10
2018-11-06T21:13:09.913Z,10.2
2018-11-06T21:16:08.468Z,10.2
2018-11-06T21:19:08.553Z,9.8
2018-11-06T21:22:08.252Z,9.6
2018-11-06T21:25:10.284Z,9.6
2018-11-06T21:28:08.547Z,9.5
2018-11-06T21:31:08.800Z,9.6
2018-11-06T21:34:08.322Z,9.4
2018-11-06T21:37:08.295Z,9.8
2018-11-06T21:40:08.597Z,9.4
2018-11-06T21:43:08.618Z,9.8
2018-11-06T21:46:08.452Z,9.6
2018-11-06T21:49:08.581Z,9.4
2018-11-06T21:52:08.659Z,9.3
2018-11-06T21:55:08.281Z,9.2
2018-11-06T21:58:08.600Z,9.1
2018-11-06T22:01:08.835Z,9
2018-11-06T22:04:08.515Z,9.1
2018-11-06T22:07:08.318Z,9
2018-11-06T22:10:08.324Z,8.8
2018-11-06T22:13:10.503Z,8.8
2018-11-06T22:16:08.304Z,8.9
2018-11-06T22:19:08.315Z,8.8
2018-11-06T22:22:09.364Z,8.7
2018-11-06T22:25:08.451Z,9
2018-11-06T22:28:08.240Z,9
2018-11-06T22:31:08.357Z,8.6
2018-11-06T22:34:08.411Z,8.9
2018-11-06T22:37:10.149Z,8.7
2018-11-06T22:40:08.282Z,8.8
2018-11-06T22:43:08.383Z,8.7
2018-11-06T22:46:08.482Z,8.6
2018-11-06T22:49:08.967Z,8.8
2018-11-06T22:52:08.539Z,8.7
2018-11-06T22:55:08.633Z,8.5
2018-11-06T22:58:08.273Z,8.5
2018-11-06T23:01:08.476Z,8.6
2018-11-06T23:04:08.685Z,8.4
2018-11-06T23:07:13.489Z,8.3
2018-11-06T23:10:08.541Z,8.2
2018-11-06T23:13:08.289Z,8.4
2018-11-06T23:16:08.381Z,8.4
2018-11-06T23:19:08.222Z,8.5
2018-11-06T23:22:08.391Z,8.5
2018-11-06T23:25:10.332Z,8.4
2018-11-06T23:28:08.930Z,8.3
2018-11-06T23:31:08.196Z,8.1
2018-11-06T23:34:08.444Z,8.1
2018-11-06T23:37:08.460Z,8.2
2018-11-06T23:40:08.314Z,8.2
2018-11-06T23:43:08.767Z,8.5
2018-11-06T23:46:08.359Z,8.2
2018-11-06T23:49:08.278Z,8.1
2018-11-06T23:52:08.379Z,8
2018-11-06T23:55:09.753Z,8.1
2018-11-06T23:58:08.328Z,8
